createdAt,value
2018-08-04T00:01:01.410Z,101146.14
2018-08-04T00:03:31.478Z,101146.65
2018-08-04T00:06:02.099Z,101144.54
2018-08-04T00:08:32.791Z,101148.02
2018-08-04T00:11:03.260Z,101145.36
2018-08-04T00:13:33.857Z,101140.80
2018-08-04T00:16:04.535Z,101149.92
2018-08-04T00:18:35.130Z,101151.31
2018-08-04T00:21:05.822Z,101145.13
2018-08-04T00:23:36.495Z,101144.73
2018-08-04T00:26:07.179Z,101147.27
2018-08-04T00:28:37.659Z,101145.02
2018-08-04T00:31:08.360Z,101148.19
2018-08-04T00:33:38.929Z,101151.00
2018-08-04T00:36:09.520Z,101153.00
2018-08-04T00:38:40.092Z,101153.62
2018-08-04T00:41:10.792Z,101152.59
2018-08-04T00:43:41.383Z,101156.21
2018-08-04T00:46:11.960Z,101157.53
2018-08-04T00:48:42.212Z,101146.07
2018-08-04T00:51:12.891Z,101147.86
2018-08-04T00:53:42.956Z,101154.63
2018-08-04T00:56:13.481Z,101154.11
2018-08-04T00:58:43.946Z,101141.88
2018-08-04T01:01:14.647Z,101143.15
2018-08-04T01:03:45.121Z,101141.20
2018-08-04T01:06:15.723Z,101144.81
2018-08-04T01:08:46.095Z,101145.70
2018-08-04T01:11:16.583Z,101146.19
2018-08-04T01:13:47.141Z,101149.34
2018-08-04T01:16:17.632Z,101160.66
2018-08-04T01:18:48.210Z,101157.30
2018-08-04T01:21:18.597Z,101149.30
2018-08-04T01:23:49.074Z,101146.66
2018-08-04T01:26:19.643Z,101146.13
2018-08-04T01:28:50.411Z,101146.94
2018-08-04T01:31:20.942Z,101145.48
2018-08-04T01:33:51.531Z,101142.23
2018-08-04T01:36:22.217Z,101141.80
2018-08-04T01:38:52.856Z,101135.13
2018-08-04T01:41:23.385Z,101143.95
2018-08-04T01:43:53.713Z,101145.05
2018-08-04T01:46:24.115Z,101136.94
2018-08-04T01:48:54.620Z,101139.30
2018-08-04T01:51:25.179Z,101147.77
2018-08-04T01:53:55.466Z,101141.08
2018-08-04T01:56:25.858Z,101142.12
2018-08-04T01:58:56.243Z,101138.68
2018-08-04T02:01:26.701Z,101133.16
2018-08-04T02:03:57.142Z,101134.12
2018-08-04T02:06:27.655Z,101130.72
2018-08-04T02:08:58.256Z,101137.12
2018-08-04T02:11:28.749Z,101139.67
2018-08-04T02:13:59.010Z,101134.63
2018-08-04T02:16:29.379Z,101130.26
2018-08-04T02:18:59.486Z,101127.72
2018-08-04T02:21:30.169Z,101129.34
2018-08-04T02:24:00.663Z,101130.94
2018-08-04T02:26:30.904Z,101132.56
2018-08-04T02:29:01.156Z,101138.39
2018-08-04T02:31:31.466Z,101137.02
2018-08-04T02:34:02.063Z,101138.12
2018-08-04T02:36:32.543Z,101132.23
2018-08-04T02:39:03.067Z,101129.27
2018-08-04T02:41:33.288Z,101122.84
2018-08-04T02:44:03.739Z,101117.88
2018-08-04T02:46:34.420Z,101120.58
2018-08-04T02:49:04.957Z,101123.35
2018-08-04T02:51:35.515Z,101121.46
2018-08-04T02:54:05.686Z,101113.89
2018-08-04T02:56:36.099Z,101110.44
2018-08-04T02:59:06.662Z,101101.88
2018-08-04T03:01:37.232Z,101106.70
2018-08-04T03:04:07.718Z,101109.41
2018-08-04T03:06:38.223Z,101109.98
2018-08-04T03:09:12.032Z,101115.98
2018-08-04T03:11:42.719Z,101117.37
2018-08-04T03:14:13.359Z,101129.59
2018-08-04T03:16:43.932Z,101128.86
2018-08-04T03:19:14.574Z,101133.42
2018-08-04T03:21:45.108Z,101136.52
2018-08-04T03:24:15.637Z,101128.64
2018-08-04T03:26:46.055Z,101128.23
2018-08-04T03:29:16.535Z,101127.42
2018-08-04T03:31:47.108Z,101133.45
2018-08-04T03:34:17.686Z,101134.94
2018-08-04T03:36:48.306Z,101137.25
2018-08-04T03:39:18.774Z,101130.85
2018-08-04T03:41:49.367Z,101131.84
2018-08-04T03:44:19.708Z,101134.73
2018-08-04T03:46:50.094Z,101134.34
2018-08-04T03:49:20.670Z,101133.79
2018-08-04T03:51:51.296Z,101144.09
2018-08-04T03:54:21.871Z,101138.40
2018-08-04T03:56:52.466Z,101139.63
2018-08-04T03:59:22.951Z,101130.53
2018-08-04T04:01:53.207Z,101129.86
2018-08-04T04:04:23.693Z,101138.91
2018-08-04T04:06:54.151Z,101143.77
2018-08-04T04:09:24.754Z,101149.34
2018-08-04T04:11:55.239Z,101159.94
2018-08-04T04:14:25.293Z,101163.93
2018-08-04T04:16:55.576Z,101160.70
2018-08-04T04:19:26.203Z,101156.22
2018-08-04T04:21:56.649Z,101150.82
2018-08-04T04:24:26.936Z,101146.02
2018-08-04T04:26:57.532Z,101150.05
2018-08-04T04:29:27.890Z,101151.33
2018-08-04T04:31:58.279Z,101152.97
2018-08-04T04:34:28.966Z,101151.20
2018-08-04T04:36:59.544Z,101148.59
2018-08-04T04:39:30.174Z,101148.88
2018-08-04T04:42:00.131Z,101139.61
2018-08-04T04:44:30.596Z,101140.78
2018-08-04T04:47:01.055Z,101144.73
2018-08-04T04:49:31.628Z,101144.46
2018-08-04T04:52:02.134Z,101135.78
2018-08-04T04:54:32.740Z,101145.12
2018-08-04T04:57:03.516Z,101146.23
2018-08-04T04:59:34.000Z,101149.02
2018-08-04T05:02:04.539Z,101148.05
2018-08-04T05:04:35.040Z,101146.80
2018-08-04T05:07:05.507Z,101156.42
2018-08-04T05:09:36.000Z,101149.41
2018-08-04T05:12:06.495Z,101154.25
2018-08-04T05:14:37.051Z,101157.12
2018-08-04T05:17:07.524Z,101155.30
2018-08-04T05:19:38.015Z,101161.70
2018-08-04T05:22:08.708Z,101164.41
2018-08-04T05:24:39.289Z,101163.48
2018-08-04T05:27:09.933Z,101164.91
2018-08-04T05:29:40.377Z,101171.20
2018-08-04T05:32:10.893Z,101172.87
2018-08-04T05:34:41.364Z,101166.61
2018-08-04T05:37:11.815Z,101162.14
2018-08-04T05:39:41.839Z,101158.11
2018-08-04T05:42:11.950Z,101152.52
2018-08-04T05:44:42.477Z,101156.28
2018-08-04T05:47:12.824Z,101154.58
2018-08-04T05:49:43.421Z,101158.50
2018-08-04T05:52:14.057Z,101155.84
2018-08-04T05:54:44.643Z,101159.41
2018-08-04T05:57:15.239Z,101161.88
2018-08-04T05:59:45.731Z,101164.27
2018-08-04T06:02:16.076Z,101158.66
2018-08-04T06:04:46.564Z,101154.80
2018-08-04T06:07:17.166Z,101164.67
2018-08-04T06:09:47.712Z,101167.37
2018-08-04T06:12:18.217Z,101165.19
2018-08-04T06:14:48.817Z,101170.30
2018-08-04T06:17:19.500Z,101170.77
2018-08-04T06:19:50.102Z,101170.98
2018-08-04T06:22:20.674Z,101175.19
2018-08-04T06:24:50.862Z,101180.56
2018-08-04T06:27:21.928Z,101185.21
2018-08-04T06:29:52.322Z,101178.30
2018-08-04T06:32:22.776Z,101186.96
2018-08-04T06:34:53.355Z,101179.51
2018-08-04T06:37:23.648Z,101183.83
2018-08-04T06:39:54.347Z,101181.70
2018-08-04T06:42:24.759Z,101185.70
2018-08-04T06:44:54.723Z,101180.18
2018-08-04T06:47:25.351Z,101194.13
2018-08-04T06:49:55.962Z,101192.52
2018-08-04T06:52:26.552Z,101194.70
2018-08-04T06:54:57.246Z,101195.95
2018-08-04T06:57:27.603Z,101195.69
2018-08-04T06:59:58.070Z,101185.89
2018-08-04T07:02:28.183Z,101174.45
2018-08-04T07:04:58.656Z,101165.39
2018-08-04T07:07:28.999Z,101164.41
2018-08-04T07:09:59.407Z,101175.20
2018-08-04T07:12:29.970Z,101176.14
2018-08-04T07:15:00.446Z,101170.52
2018-08-04T07:17:30.962Z,101170.80
2018-08-04T07:20:01.574Z,101166.42
2018-08-04T07:22:32.277Z,101165.63
2018-08-04T07:25:02.921Z,101172.23
2018-08-04T07:27:33.612Z,101171.97
2018-08-04T07:30:03.786Z,101182.62
2018-08-04T07:32:34.139Z,101177.36
2018-08-04T07:35:04.718Z,101169.04
2018-08-04T07:37:35.415Z,101173.63
2018-08-04T07:40:06.040Z,101178.20
2018-08-04T07:42:36.982Z,101174.91
2018-08-04T07:45:07.776Z,101178.96
2018-08-04T07:47:38.519Z,101185.05
2018-08-04T07:50:09.454Z,101182.23
2018-08-04T07:52:40.063Z,101185.08
2018-08-04T07:55:10.660Z,101182.05
2018-08-04T07:57:41.349Z,101177.64
2018-08-04T08:00:12.033Z,101177.38
2018-08-04T08:02:42.699Z,101186.41
2018-08-04T08:05:13.378Z,101191.03
2018-08-04T08:07:43.757Z,101190.69
2018-08-04T08:10:14.154Z,101188.34
2018-08-04T08:12:44.799Z,101195.59
2018-08-04T08:15:15.399Z,101196.02
2018-08-04T08:17:45.855Z,101192.52
2018-08-04T08:20:16.536Z,101194.98
2018-08-04T08:22:47.126Z,101196.16
2018-08-04T08:25:17.812Z,101188.24
2018-08-04T08:27:48.292Z,101195.34
2018-08-04T08:30:18.876Z,101189.02
2018-08-04T08:32:49.351Z,101190.38
2018-08-04T08:35:19.838Z,101190.95
2018-08-04T08:37:50.307Z,101194.42
2018-08-04T08:40:20.894Z,101197.38
2018-08-04T08:42:51.473Z,101197.91
2018-08-04T08:45:22.053Z,101191.36
2018-08-04T08:47:52.656Z,101193.27
2018-08-04T08:50:23.240Z,101196.17
2018-08-04T08:52:53.811Z,101204.80
2018-08-04T08:55:24.427Z,101192.08
2018-08-04T08:57:55.011Z,101198.98
2018-08-04T09:00:25.668Z,101195.42
2018-08-04T09:02:56.269Z,101192.44
2018-08-04T09:05:26.854Z,101196.02
2018-08-04T09:07:57.335Z,101200.76
2018-08-04T09:10:27.922Z,101204.09
2018-08-04T09:12:58.380Z,101200.58
2018-08-04T09:15:28.782Z,101204.73
2018-08-04T09:17:59.414Z,101207.77
2018-08-04T09:20:30.066Z,101210.90
2018-08-04T09:23:00.173Z,101207.30
2018-08-04T09:25:30.815Z,101208.25
2018-08-04T09:28:01.292Z,101197.86
2018-08-04T09:30:31.889Z,101203.13
2018-08-04T09:33:02.466Z,101201.05
2018-08-04T09:35:33.042Z,101199.13
2018-08-04T09:38:03.525Z,101200.06
2018-08-04T09:40:33.880Z,101193.53
2018-08-04T09:43:04.486Z,101192.92
2018-08-04T09:45:34.943Z,101186.23
2018-08-04T09:48:05.609Z,101186.77
2018-08-04T09:50:36.269Z,101181.26
2018-08-04T09:53:06.793Z,101174.34
2018-08-04T09:55:37.360Z,101176.75
2018-08-04T09:58:08.341Z,101171.66
2018-08-04T10:00:43.844Z,101181.25
2018-08-04T10:03:14.294Z,101177.49
2018-08-04T10:05:44.708Z,101180.18
2018-08-04T10:08:15.132Z,101183.52
2018-08-04T10:10:45.561Z,101176.34
2018-08-04T10:13:16.049Z,101169.41
2018-08-04T10:15:46.451Z,101171.53
2018-08-04T10:18:16.583Z,101165.98
2018-08-04T10:20:46.730Z,101173.73
2018-08-04T10:23:17.205Z,101170.33
2018-08-04T10:25:48.527Z,101178.00
2018-08-04T10:28:18.884Z,101174.67
2018-08-04T10:30:49.411Z,101171.05
2018-08-04T10:33:19.843Z,101174.67
2018-08-04T10:35:50.422Z,101167.95
2018-08-04T10:38:20.931Z,101164.73
2018-08-04T10:40:51.294Z,101164.11
2018-08-04T10:43:21.786Z,101167.27
2018-08-04T10:45:52.399Z,101162.47
2018-08-04T10:48:22.924Z,101159.70
2018-08-04T10:50:53.504Z,101157.70
2018-08-04T10:53:24.252Z,101156.95
2018-08-04T10:55:54.748Z,101161.26
2018-08-04T10:58:25.159Z,101153.09
2018-08-04T11:00:55.621Z,101147.39
2018-08-04T11:03:26.208Z,101152.73
2018-08-04T11:05:56.791Z,101140.15
2018-08-04T11:08:27.350Z,101136.81
2018-08-04T11:10:57.933Z,101136.44
2018-08-04T11:13:28.652Z,101134.70
2018-08-04T11:15:59.241Z,101131.35
2018-08-04T11:18:29.906Z,101131.61
2018-08-04T11:21:00.652Z,101134.07
2018-08-04T11:23:31.736Z,101130.31
2018-08-04T11:26:02.270Z,101131.16
2018-08-04T11:28:32.861Z,101132.95
2018-08-04T11:31:03.559Z,101128.15
2018-08-04T11:33:34.237Z,101130.97
2018-08-04T11:36:04.836Z,101127.98
2018-08-04T11:38:35.504Z,101132.06
2018-08-04T11:41:06.089Z,101130.03
2018-08-04T11:43:36.558Z,101127.25
2018-08-04T11:46:06.942Z,101126.09
2018-08-04T11:48:37.429Z,101123.36
2018-08-04T11:51:07.913Z,101110.34
2018-08-04T11:53:38.425Z,101110.98
2018-08-04T11:56:08.852Z,101109.43
2018-08-04T11:58:39.256Z,101109.38
2018-08-04T12:01:09.676Z,101106.66
2018-08-04T12:03:40.132Z,101108.30
2018-08-04T12:06:10.596Z,101107.36
2018-08-04T12:08:41.064Z,101102.67
2018-08-04T12:11:11.632Z,101105.14
2018-08-04T12:13:42.152Z,101100.31
2018-08-04T12:16:12.834Z,101103.89
2018-08-04T12:18:43.213Z,101101.74
2018-08-04T12:21:13.691Z,101099.64
2018-08-04T12:23:44.270Z,101091.99
2018-08-04T12:26:14.842Z,101097.75
2018-08-04T12:28:45.441Z,101086.61
2018-08-04T12:31:16.048Z,101091.07
2018-08-04T12:33:46.587Z,101090.77
2018-08-04T12:36:17.217Z,101096.86
2018-08-04T12:38:49.200Z,101091.23
2018-08-04T12:41:19.575Z,101092.98
2018-08-04T12:43:50.078Z,101094.70
2018-08-04T12:46:20.589Z,101089.45
2018-08-04T12:48:51.321Z,101089.19
2018-08-04T12:51:21.911Z,101083.01
2018-08-04T12:53:52.506Z,101082.34
2018-08-04T12:56:23.094Z,101083.06
2018-08-04T12:58:53.702Z,101075.64
2018-08-04T13:01:24.264Z,101077.36
2018-08-04T13:03:54.862Z,101069.59
2018-08-04T13:06:24.962Z,101069.96
2018-08-04T13:08:55.481Z,101069.20
2018-08-04T13:11:25.772Z,101061.81
2018-08-04T13:13:56.347Z,101063.62
2018-08-04T13:16:26.835Z,101057.13
2018-08-04T13:18:57.535Z,101063.03
2018-08-04T13:21:28.140Z,101055.91
2018-08-04T13:23:58.807Z,101053.87
2018-08-04T13:26:29.399Z,101050.64
2018-08-04T13:28:59.993Z,101051.31
2018-08-04T13:31:30.455Z,101052.42
2018-08-04T13:34:00.915Z,101045.56
2018-08-04T13:36:31.516Z,101045.26
2018-08-04T13:39:02.265Z,101043.57
2018-08-04T13:41:32.814Z,101050.86
2018-08-04T13:44:03.386Z,101047.34
2018-08-04T13:46:33.968Z,101048.95
2018-08-04T13:49:04.792Z,101049.67
2018-08-04T13:51:35.343Z,101049.12
2018-08-04T13:54:05.943Z,101043.37
2018-08-04T13:56:36.422Z,101047.98
2018-08-04T13:59:06.863Z,101049.24
2018-08-04T14:01:37.255Z,101041.21
2018-08-04T14:04:07.848Z,101036.93
2018-08-04T14:06:38.435Z,101042.77
2018-08-04T14:09:11.111Z,101044.85
2018-08-04T14:11:41.538Z,101045.34
2018-08-04T14:14:12.016Z,101044.41
2018-08-04T14:16:42.520Z,101034.20
2018-08-04T14:19:13.084Z,101039.09
2018-08-04T14:21:43.696Z,101037.61
2018-08-04T14:24:14.360Z,101034.86
2018-08-04T14:26:44.853Z,101036.92
2018-08-04T14:29:15.448Z,101029.77
2018-08-04T14:31:45.819Z,101022.45
2018-08-04T14:34:16.321Z,101032.67
2018-08-04T14:36:46.427Z,101027.28
2018-08-04T14:39:17.023Z,101021.88
2018-08-04T14:41:47.536Z,101021.52
2018-08-04T14:44:18.042Z,101029.36
2018-08-04T14:46:49.202Z,101028.18
2018-08-04T14:49:19.802Z,101021.88
2018-08-04T14:51:50.387Z,101026.06
2018-08-04T14:54:20.971Z,101023.30
2018-08-04T14:56:51.659Z,101025.03
2018-08-04T14:59:22.238Z,101021.47
2018-08-04T15:01:52.691Z,101015.38
2018-08-04T15:04:23.122Z,101015.05
2018-08-04T15:06:53.478Z,101013.22
2018-08-04T15:09:23.960Z,101018.85
2018-08-04T15:11:54.463Z,101006.39
2018-08-04T15:14:25.057Z,101012.42
2018-08-04T15:16:55.525Z,101008.86
2018-08-04T15:19:25.882Z,101007.75
2018-08-04T15:21:56.344Z,101012.22
2018-08-04T15:24:26.626Z,101012.08
2018-08-04T15:26:57.404Z,101010.36
2018-08-04T15:29:27.808Z,101005.65
2018-08-04T15:31:58.518Z,101005.05
2018-08-04T15:34:28.959Z,101010.50
2018-08-04T15:36:59.566Z,101006.70
2018-08-04T15:39:29.928Z,101011.53
2018-08-04T15:42:00.303Z,101008.84
2018-08-04T15:44:30.979Z,101004.67
2018-08-04T15:47:01.473Z,101006.02
2018-08-04T15:49:32.091Z,101010.45
2018-08-04T15:52:02.770Z,101010.47
2018-08-04T15:54:33.435Z,101010.54
2018-08-04T15:57:03.941Z,101012.00
2018-08-04T15:59:34.520Z,101011.80
2018-08-04T16:02:04.951Z,101015.38
2018-08-04T16:04:35.376Z,101017.89
2018-08-04T16:07:05.838Z,101016.73
2018-08-04T16:09:36.824Z,101019.00
2018-08-04T16:12:07.194Z,101023.19
2018-08-04T16:14:37.768Z,101017.05
2018-08-04T16:17:08.584Z,101015.97
2018-08-04T16:19:39.206Z,101010.24
2018-08-04T16:22:09.851Z,101011.27
2018-08-04T16:24:40.624Z,101002.70
2018-08-04T16:27:11.144Z,101009.16
2018-08-04T16:29:41.711Z,101009.45
2018-08-04T16:32:12.476Z,101011.36
2018-08-04T16:34:43.113Z,101006.91
2018-08-04T16:37:13.490Z,101013.55
2018-08-04T16:39:43.733Z,101010.48
2018-08-04T16:42:14.207Z,101012.03
2018-08-04T16:44:44.680Z,101012.74
2018-08-04T16:47:14.919Z,101006.14
2018-08-04T16:49:45.372Z,101004.92
2018-08-04T16:52:15.948Z,101011.25
2018-08-04T16:54:46.366Z,101007.64
2018-08-04T16:57:16.455Z,101011.34
2018-08-04T16:59:46.711Z,101003.89
2018-08-04T17:02:17.307Z,101010.93
2018-08-04T17:04:47.798Z,101005.06
2018-08-04T17:07:18.367Z,101009.90
2018-08-04T17:09:48.859Z,101008.17
2018-08-04T17:12:19.507Z,101006.98
2018-08-04T17:14:50.086Z,101012.56
2018-08-04T17:17:20.610Z,101012.30
2018-08-04T17:19:53.976Z,101015.63
2018-08-04T17:22:24.475Z,101014.69
2018-08-04T17:24:55.127Z,101015.30
2018-08-04T17:27:25.679Z,101019.73
2018-08-04T17:29:56.012Z,101014.28
2018-08-04T17:32:26.736Z,101021.41
2018-08-04T17:34:57.206Z,101016.95
2018-08-04T17:37:27.691Z,101025.62
2018-08-04T17:39:58.055Z,101030.91
2018-08-04T17:42:28.443Z,101031.72
2018-08-04T17:44:58.917Z,101037.41
2018-08-04T17:47:29.435Z,101039.11
2018-08-04T17:50:00.022Z,101039.19
2018-08-04T17:52:30.496Z,101051.56
2018-08-04T17:55:00.743Z,101048.61
2018-08-04T17:57:31.236Z,101048.22
2018-08-04T18:00:01.708Z,101048.45
2018-08-04T18:02:32.112Z,101059.05
2018-08-04T18:05:02.664Z,101060.72
2018-08-04T18:07:32.847Z,101058.77
2018-08-04T18:10:03.238Z,101061.21
2018-08-04T18:12:34.488Z,101063.70
2018-08-04T18:15:05.777Z,101060.83
2018-08-04T18:17:36.350Z,101062.49
2018-08-04T18:20:07.218Z,101066.05
2018-08-04T18:22:37.928Z,101064.02
2018-08-04T18:25:08.241Z,101065.00
2018-08-04T18:27:38.581Z,101070.68
2018-08-04T18:30:09.195Z,101073.70
2018-08-04T18:32:39.544Z,101085.15
2018-08-04T18:35:10.069Z,101078.86
2018-08-04T18:37:40.398Z,101079.64
2018-08-04T18:40:10.769Z,101090.06
2018-08-04T18:42:41.237Z,101094.74
2018-08-04T18:45:11.717Z,101094.23
2018-08-04T18:47:42.125Z,101090.94
2018-08-04T18:50:12.762Z,101094.75
2018-08-04T18:52:42.883Z,101092.22
2018-08-04T18:55:13.451Z,101094.66
2018-08-04T18:57:43.787Z,101099.38
2018-08-04T19:00:24.041Z,101099.92
2018-08-04T19:02:54.342Z,101098.80
2018-08-04T19:05:25.263Z,101098.77
2018-08-04T19:07:55.811Z,101099.00
2018-08-04T19:10:26.204Z,101101.36
2018-08-04T19:12:56.921Z,101093.17
2018-08-04T19:15:27.500Z,101095.10
2018-08-04T19:17:57.985Z,101104.07
2018-08-04T19:20:28.695Z,101112.13
2018-08-04T19:22:59.176Z,101111.79
2018-08-04T19:25:29.431Z,101110.70
2018-08-04T19:27:59.958Z,101118.75
2018-08-04T19:30:30.376Z,101122.92
2018-08-04T19:33:00.752Z,101119.70
2018-08-04T19:35:30.929Z,101122.69
2018-08-04T19:38:01.396Z,101121.17
2018-08-04T19:40:31.968Z,101126.09
2018-08-04T19:43:02.566Z,101132.35
2018-08-04T19:45:33.140Z,101139.23
2018-08-04T19:48:03.528Z,101146.77
2018-08-04T19:50:34.047Z,101146.83
2018-08-04T19:53:04.508Z,101141.52
2018-08-04T19:55:35.164Z,101149.84
2018-08-04T19:58:05.272Z,101153.87
2018-08-04T20:00:36.082Z,101156.20
2018-08-04T20:03:06.584Z,101161.05
2018-08-04T20:05:37.233Z,101162.55
2018-08-04T20:08:07.677Z,101166.56
2018-08-04T20:10:37.940Z,101169.93
2018-08-04T20:13:08.536Z,101174.78
2018-08-04T20:15:38.995Z,101178.30
2018-08-04T20:18:09.481Z,101173.64
2018-08-04T20:20:40.065Z,101169.36
2018-08-04T20:23:10.723Z,101170.02
2018-08-04T20:25:41.192Z,101169.67
2018-08-04T20:28:11.545Z,101175.84
2018-08-04T20:30:41.774Z,101176.01
2018-08-04T20:33:12.315Z,101170.69
2018-08-04T20:35:42.829Z,101180.33
2018-08-04T20:38:13.258Z,101188.64
2018-08-04T20:40:43.636Z,101184.83
2018-08-04T20:43:14.193Z,101187.50
2018-08-04T20:45:44.656Z,101194.31
2018-08-04T20:48:15.153Z,101187.65
2018-08-04T20:50:45.263Z,101193.97
2018-08-04T20:53:15.951Z,101193.31
2018-08-04T20:55:46.623Z,101201.61
2018-08-04T20:58:17.356Z,101200.63
2018-08-04T21:01:04.208Z,101196.16
2018-08-04T21:03:34.649Z,101200.28
2018-08-04T21:06:05.232Z,101203.96
2018-08-04T21:08:35.792Z,101214.44
2018-08-04T21:11:06.004Z,101212.92
2018-08-04T21:13:36.671Z,101215.58
2018-08-04T21:16:07.131Z,101216.92
2018-08-04T21:18:37.409Z,101214.70
2018-08-04T21:21:08.155Z,101212.39
2018-08-04T21:23:38.580Z,101216.20
2018-08-04T21:26:09.020Z,101214.56
2018-08-04T21:28:39.080Z,101218.00
2018-08-04T21:31:09.542Z,101219.81
2018-08-04T21:33:39.924Z,101218.33
2018-08-04T21:36:10.463Z,101221.24
2018-08-04T21:38:41.609Z,101222.84
2018-08-04T21:41:12.160Z,101215.51
2018-08-04T21:43:42.763Z,101216.67
2018-08-04T21:46:13.338Z,101213.83
2018-08-04T21:48:43.912Z,101224.63
2018-08-04T21:51:14.614Z,101227.58
2018-08-04T21:53:45.313Z,101226.63
2018-08-04T21:56:16.013Z,101229.61
2018-08-04T21:58:46.206Z,101228.91
2018-08-04T22:01:16.782Z,101231.39
2018-08-04T22:03:48.769Z,101233.03
2018-08-04T22:06:19.913Z,101235.55
2018-08-04T22:09:33.127Z,101237.79
2018-08-04T22:12:03.656Z,101236.89
2018-08-04T22:14:34.176Z,101238.05
2018-08-04T22:17:04.869Z,101242.34
2018-08-04T22:19:35.477Z,101241.19
2018-08-04T22:22:06.246Z,101242.41
2018-08-04T22:24:36.857Z,101248.67
2018-08-04T22:27:07.534Z,101249.19
2018-08-04T22:29:38.219Z,101248.11
2018-08-04T22:32:08.986Z,101251.92
2018-08-04T22:34:39.960Z,101255.80
2018-08-04T22:37:10.708Z,101270.41
2018-08-04T22:39:41.179Z,101259.43
2018-08-04T22:42:11.748Z,101267.06
2018-08-04T22:44:58.693Z,101265.96
2018-08-04T22:47:29.152Z,101269.44
2018-08-04T22:49:59.757Z,101267.59
2018-08-04T22:52:30.360Z,101266.25
2018-08-04T22:55:00.933Z,101271.02
2018-08-04T22:57:31.519Z,101268.48
2018-08-04T23:00:02.207Z,101271.52
2018-08-04T23:02:32.750Z,101277.19
2018-08-04T23:05:03.185Z,101284.87
2018-08-04T23:07:33.652Z,101279.70
2018-08-04T23:10:04.204Z,101283.97
2018-08-04T23:12:34.225Z,101274.56
2018-08-04T23:15:04.696Z,101275.83
2018-08-04T23:17:35.159Z,101276.53
2018-08-04T23:20:05.577Z,101271.78
2018-08-04T23:22:36.081Z,101280.36
2018-08-04T23:25:06.649Z,101287.44
2018-08-04T23:27:37.166Z,101284.11
2018-08-04T23:30:07.828Z,101282.65
2018-08-04T23:32:38.432Z,101283.33
2018-08-04T23:35:09.026Z,101289.87
2018-08-04T23:37:39.697Z,101295.36
2018-08-04T23:40:10.251Z,101298.75
2018-08-04T23:42:40.964Z,101297.25
2018-08-04T23:45:11.635Z,101299.80
2018-08-04T23:47:42.337Z,101302.56
2018-08-04T23:50:12.852Z,101298.50
2018-08-04T23:52:43.155Z,101298.88
2018-08-04T23:55:13.243Z,101298.64
2018-08-04T23:57:43.851Z,101287.91
